Time;durP1;ratioP1;P1;durP2;ratioP2;P2;SDS_P1;SDS_P2;PMS_P1;PMS_P2;Temp;Humidity;BMP_temperature;BMP_pressure;BME280_temperature;BME280_humidity;BME280_pressure;Samples;Min_cycle;Max_cycle;Signal;HPM_P1;HPM_P2
2022/01/25 00:10:52;;;;;;;;;;;;;;;3.90;30.39;101396.37;4463620;32;35321;-67
2022/01/25 00:24:18;;;;;;;;;;;;;;;3.74;29.70;101396.69;4465581;32;34840;-67
2022/01/25 00:25:08;;;;;;;;;;;;;;;3.07;31.87;101403.25;4460787;32;33862;-67
2022/01/25 00:28:17;;;;;;;;;;;;;;;2.43;33.36;101397.22;4464107;32;34181;-66
2022/01/25 00:30:31;;;;;;;;;;;;;;;2.54;33.62;101394.44;4461415;32;33280;-67
2022/01/25 00:32:59;;;;;;;;;;;;;;;2.11;33.98;101397.69;4465853;32;34172;-67
2022/01/25 00:35:26;;;;;;;;;;;;;;;2.14;34.19;101402.06;4466216;32;35098;-67
2022/01/25 00:37:54;;;;;;;;;;;;;;;2.37;34.26;101396.44;4454230;32;33539;-66
2022/01/25 00:40:21;;;;;;;;;;;;;;;2.30;33.68;101396.53;4461358;32;33314;-67
2022/01/25 00:42:49;;;;;;;;;;;;;;;2.38;33.71;101409.66;4457590;32;33904;-69
2022/01/25 00:45:19;;;;;;;;;;;;;;;2.84;32.07;101393.06;4458016;32;34558;-69
2022/01/25 00:47:49;;;;;;;;;;;;;;;3.22;30.13;101391.53;4461885;32;32635;-69
2022/01/25 00:50:16;;;;;;;;;;;;;;;2.92;31.24;101391.19;4463741;32;33535;-68
2022/01/25 00:55:12;;;;;;;;;;;;;;;2.88;30.29;101393.88;4465256;32;33037;-66
2022/01/25 00:57:39;;;;;;;;;;;;;;;2.72;30.96;101387.97;4468327;32;34006;-69
2022/01/25 01:00:08;;;;;;;;;;;;;;;2.17;32.81;101392.31;4464705;32;34484;-67
2022/01/25 01:02:35;;;;;;;;;;;;;;;2.68;31.26;101381.84;4467205;32;35148;-65
2022/01/25 01:05:03;;;;;;;;;;;;;;;1.98;33.25;101373.19;4463448;32;34127;-66
2022/01/25 01:07:30;;;;;;;;;;;;;;;2.49;31.84;101376.00;4459220;32;35010;-68
2022/01/25 01:09:59;;;;;;;;;;;;;;;2.64;31.17;101372.25;4461055;32;32995;-67
2022/01/25 01:15:44;;;;;;;;;;;;;;;3.04;29.81;101371.56;4463527;32;34541;-68
2022/01/25 01:40:09;;;;;;;;;;;;;;;2.66;31.78;101343.13;4462548;32;34000;-66
2022/01/25 01:48:08;;;;;;;;;;;;;;;2.69;32.00;101338.66;4463678;32;34761;-68
2022/01/25 01:50:37;;;;;;;;;;;;;;;2.07;33.49;101332.59;4465244;32;34029;-67
2022/01/25 01:53:05;;;;;;;;;;;;;;;1.59;34.79;101327.94;4463151;32;33448;-67
2022/01/25 01:55:32;;;;;;;;;;;;;;;2.04;33.57;101324.72;4467838;32;35481;-67
2022/01/25 01:58:00;;;;;;;;;;;;;;;1.84;34.37;101327.63;4466994;32;34336;-68
2022/01/25 02:00:36;;;;;;;;;;;;;;;2.33;32.88;101317.22;4460437;32;34213;-66
2022/01/25 02:03:04;;;;;;;;;;;;;;;2.49;33.55;101312.56;4465033;32;33403;-65
2022/01/25 02:05:32;;;;;;;;;;;;;;;2.32;33.76;101315.47;4462196;32;34036;-65
2022/01/25 02:08:00;;;;;;;;;;;;;;;2.66;33.54;101309.62;4462210;32;34322;-66
2022/01/25 02:10:27;;;;;;;;;;;;;;;2.79;31.50;101305.00;4463845;32;33569;-66
2022/01/25 02:12:55;;;;;;;;;;;;;;;2.33;32.46;101303.12;4463765;32;34967;-66
2022/01/25 02:15:25;;;;;;;;;;;;;;;2.41;32.48;101308.28;4461983;32;32874;-65
2022/01/25 02:22:25;;;;;;;;;;;;;;;2.00;32.72;101305.41;4460439;32;34522;-65
2022/01/25 02:23:27;;;;;;;;;;;;;;;1.86;33.09;101307.34;4457729;32;34295;-65
2022/01/25 02:25:55;;;;;;;;;;;;;;;1.80;33.15;101299.53;4464703;32;34257;-66
2022/01/25 02:28:24;;;;;;;;;;;;;;;2.29;31.94;101290.87;4464623;32;34411;-66
2022/01/25 02:30:52;;;;;;;;;;;;;;;1.77;32.92;101295.16;4460918;32;35333;-64
2022/01/25 02:33:19;;;;;;;;;;;;;;;1.46;33.27;101293.81;4463959;32;33573;-66
2022/01/25 02:35:47;;;;;;;;;;;;;;;1.83;32.78;101296.81;4464170;32;34006;-64
2022/01/25 02:38:19;;;;;;;;;;;;;;;1.73;32.65;101292.56;4466011;32;33053;-66
2022/01/25 02:40:46;;;;;;;;;;;;;;;2.12;32.20;101287.59;4464664;32;34224;-66
2022/01/25 02:43:16;;;;;;;;;;;;;;;2.26;31.82;101277.72;4463346;32;33247;-66
2022/01/25 02:45:46;;;;;;;;;;;;;;;2.27;31.72;101277.66;4465442;32;33290;-65
2022/01/25 02:48:30;;;;;;;;;;;;;;;2.46;31.52;101264.16;4463843;32;33151;-65
2022/01/25 02:50:59;;;;;;;;;;;;;;;2.47;31.39;101265.91;4462734;32;34013;-67
2022/01/25 02:53:27;;;;;;;;;;;;;;;1.97;32.28;101273.75;4463049;32;33115;-66
2022/01/25 02:55:55;;;;;;;;;;;;;;;1.91;32.50;101272.97;4464684;32;35037;-68
2022/01/25 02:58:22;;;;;;;;;;;;;;;1.85;32.69;101271.28;4465354;32;35082;-70
2022/01/25 03:00:49;;;;;;;;;;;;;;;2.56;31.64;101263.09;4465289;32;35276;-67
2022/01/25 03:03:17;;;;;;;;;;;;;;;2.41;32.08;101266.00;4464389;32;33565;-68
2022/01/25 03:05:45;;;;;;;;;;;;;;;2.33;32.65;101263.50;4464439;32;32766;-66
2022/01/25 03:08:14;;;;;;;;;;;;;;;2.23;32.54;101269.84;4464411;32;34117;-68
2022/01/25 03:11:00;;;;;;;;;;;;;;;2.49;31.33;101250.91;4463861;32;33099;-70
2022/01/25 03:13:51;;;;;;;;;;;;;;;2.11;32.55;101262.97;4460233;32;32654;-69
2022/01/25 03:16:27;;;;;;;;;;;;;;;2.16;32.96;101257.63;4463526;32;33941;-70
2022/01/25 03:18:57;;;;;;;;;;;;;;;2.20;32.75;101256.69;4462771;32;34051;-68
2022/01/25 03:23:55;;;;;;;;;;;;;;;2.82;31.98;101243.25;4462948;32;32224;-68
2022/01/25 03:26:22;;;;;;;;;;;;;;;2.65;32.95;101239.16;4462456;32;34281;-67
2022/01/25 03:28:50;;;;;;;;;;;;;;;2.40;32.56;101251.91;4460861;32;35582;-67
2022/01/25 03:31:17;;;;;;;;;;;;;;;2.14;32.97;101243.56;4465459;32;35328;-68
2022/01/25 03:33:45;;;;;;;;;;;;;;;2.98;31.72;101237.63;4465108;32;33526;-67
2022/01/25 03:36:13;;;;;;;;;;;;;;;2.51;31.64;101239.41;4464498;32;35123;-68
2022/01/25 03:38:40;;;;;;;;;;;;;;;3.08;30.76;101233.03;4465027;32;35053;-69
2022/01/25 03:41:09;;;;;;;;;;;;;;;3.18;30.82;101236.38;4466063;32;34294;-66
2022/01/25 03:43:37;;;;;;;;;;;;;;;3.33;30.63;101230.75;4466147;32;34525;-67
2022/01/25 03:46:15;;;;;;;;;;;;;;;3.48;31.47;101229.56;4466303;32;35200;-65
2022/01/25 03:51:29;;;;;;;;;;;;;;;2.99;31.73;101220.00;4466711;32;33992;-66
2022/01/25 03:53:56;;;;;;;;;;;;;;;2.85;32.03;101216.75;4465960;32;34690;-66
2022/01/25 03:56:24;;;;;;;;;;;;;;;3.06;31.76;101212.81;4466197;32;34176;-68
2022/01/25 03:58:51;;;;;;;;;;;;;;;3.22;31.43;101211.59;4466556;32;33707;-66
2022/01/25 04:01:19;;;;;;;;;;;;;;;3.37;31.28;101203.34;4462327;32;35346;-68
2022/01/25 04:04:04;;;;;;;;;;;;;;;3.36;32.32;101206.00;4466030;32;31956;-66
2022/01/25 04:06:32;;;;;;;;;;;;;;;3.39;31.83;101195.34;4463260;32;32843;-67
2022/01/25 04:09:00;;;;;;;;;;;;;;;3.68;31.57;101192.03;4463298;32;34573;-64
2022/01/25 04:11:27;;;;;;;;;;;;;;;3.63;32.08;101186.84;4466239;32;35146;-65
2022/01/25 04:13:56;;;;;;;;;;;;;;;3.78;31.86;101187.38;4465636;32;33120;-64
2022/01/25 04:17:03;;;;;;;;;;;;;;;3.78;31.76;101188.25;4466248;32;34864;-65
2022/01/25 04:27:30;;;;;;;;;;;;;;;4.11;31.58;101170.69;4461130;32;33728;-65
2022/01/25 04:29:58;;;;;;;;;;;;;;;4.10;31.56;101165.41;4465957;32;34293;-67
2022/01/25 04:32:33;;;;;;;;;;;;;;;4.57;30.88;101166.81;4465439;32;34140;-65
2022/01/25 04:35:24;;;;;;;;;;;;;;;4.31;31.76;101162.22;4464953;32;32583;-65
2022/01/25 04:49:09;;;;;;;;;;;;;;;4.96;31.04;101142.72;4462997;32;33476;-65
2022/01/25 04:52:03;;;;;;;;;;;;;;;4.68;31.42;101146.16;4460895;32;34301;-67
2022/01/25 05:05:27;;;;;;;;;;;;;;;5.35;32.20;101132.66;4458664;32;33999;-69
2022/01/25 05:08:07;;;;;;;;;;;;;;;4.97;33.43;101135.63;4465876;32;33837;-70
2022/01/25 05:10:47;;;;;;;;;;;;;;;5.71;31.62;101124.44;4463579;32;34927;-69
2022/01/25 05:16:38;;;;;;;;;;;;;;;6.09;31.13;101111.69;4465776;32;35326;-68
2022/01/25 05:19:05;;;;;;;;;;;;;;;6.25;31.07;101101.41;4461162;32;33162;-68
2022/01/25 05:24:18;;;;;;;;;;;;;;;6.28;31.56;101106.62;4464638;32;34168;-68
2022/01/25 05:26:45;;;;;;;;;;;;;;;6.74;30.35;101103.16;4467967;32;35556;-68
2022/01/25 05:29:13;;;;;;;;;;;;;;;6.15;32.16;101103.50;4460563;32;33570;-68
2022/01/25 05:31:40;;;;;;;;;;;;;;;6.62;30.99;101097.44;4465496;32;33547;-68
2022/01/25 05:34:08;;;;;;;;;;;;;;;5.78;32.56;101104.75;4463980;32;34368;-67
2022/01/25 05:36:38;;;;;;;;;;;;;;;6.37;31.76;101110.75;4465569;32;33540;-68
2022/01/25 05:39:13;;;;;;;;;;;;;;;6.12;31.90;101105.41;4464679;32;33573;-67
2022/01/25 05:41:42;;;;;;;;;;;;;;;6.72;30.67;101093.50;4464302;32;32496;-69
2022/01/25 05:47:26;;;;;;;;;;;;;;;6.54;30.43;101089.72;4465993;32;35721;-69
2022/01/25 05:49:35;;;;;;;;;;;;;;;6.60;30.73;101092.16;4457970;32;33492;-71
2022/01/25 05:52:03;;;;;;;;;;;;;;;6.29;31.96;101082.66;4462875;32;34153;-69
2022/01/25 05:54:31;;;;;;;;;;;;;;;6.44;30.93;101088.31;4460961;32;34165;-69
2022/01/25 05:56:59;;;;;;;;;;;;;;;6.47;30.47;101089.06;4463997;32;35337;-68
2022/01/25 05:59:26;;;;;;;;;;;;;;;6.61;30.51;101090.34;4464748;32;33043;-67
2022/01/25 06:01:54;;;;;;;;;;;;;;;6.47;31.29;101090.87;4464947;32;34198;-67
2022/01/25 06:04:22;;;;;;;;;;;;;;;6.60;31.13;101085.97;4469683;32;35495;-68
2022/01/25 06:06:50;;;;;;;;;;;;;;;6.42;31.28;101091.06;4467592;32;33599;-67
2022/01/25 06:09:17;;;;;;;;;;;;;;;6.60;31.28;101088.63;4467660;32;33474;-68
2022/01/25 06:11:45;;;;;;;;;;;;;;;6.04;31.87;101090.59;4467986;32;34183;-70
2022/01/25 06:14:12;;;;;;;;;;;;;;;6.91;30.82;101091.03;4467555;32;33962;-67
2022/01/25 06:16:39;;;;;;;;;;;;;;;7.04;30.72;101086.94;4467466;32;33225;-68
2022/01/25 06:19:07;;;;;;;;;;;;;;;7.18;30.36;101084.59;4467206;32;33391;-68
2022/01/25 06:21:36;;;;;;;;;;;;;;;7.27;30.28;101079.84;4466185;32;34120;-68
2022/01/25 06:24:03;;;;;;;;;;;;;;;6.49;31.68;101076.59;4467193;32;32847;-68
2022/01/25 06:26:31;;;;;;;;;;;;;;;7.23;30.22;101071.13;4463710;32;34334;-68
2022/01/25 06:29:00;;;;;;;;;;;;;;;7.06;30.71;101073.56;4467822;32;33811;-68
2022/01/25 06:31:29;;;;;;;;;;;;;;;7.15;30.64;101075.88;4465109;32;34002;-69
2022/01/25 06:33:57;;;;;;;;;;;;;;;6.83;31.33;101067.34;4468618;32;32430;-70
2022/01/25 06:36:25;;;;;;;;;;;;;;;7.14;30.41;101067.03;4465933;32;34423;-69
2022/01/25 06:38:52;;;;;;;;;;;;;;;7.17;30.28;101058.91;4465289;32;33381;-69
2022/01/25 06:41:25;;;;;;;;;;;;;;;7.26;30.37;101057.69;4466516;32;35533;-68
2022/01/25 06:43:53;;;;;;;;;;;;;;;6.75;31.55;101066.78;4466933;32;35153;-70
2022/01/25 06:46:20;;;;;;;;;;;;;;;7.20;31.00;101066.78;4467237;32;35188;-69
2022/01/25 06:48:48;;;;;;;;;;;;;;;6.67;31.55;101069.72;4466603;32;33605;-70
2022/01/25 06:51:15;;;;;;;;;;;;;;;7.09;31.16;101070.78;4466698;32;34081;-70
2022/01/25 06:53:42;;;;;;;;;;;;;;;7.22;30.90;101066.72;4467427;32;35211;-68
2022/01/25 06:56:10;;;;;;;;;;;;;;;6.61;31.95;101063.75;4466055;32;34712;-69
2022/01/25 06:58:40;;;;;;;;;;;;;;;7.26;30.71;101062.16;4461213;32;33137;-70
2022/01/25 07:01:08;;;;;;;;;;;;;;;6.37;31.93;101068.19;4465396;32;34216;-71
2022/01/25 07:03:36;;;;;;;;;;;;;;;7.20;30.87;101066.78;4466586;32;34019;-72
2022/01/25 07:06:03;;;;;;;;;;;;;;;7.26;30.93;101062.16;4467139;32;32646;-69
2022/01/25 07:08:31;;;;;;;;;;;;;;;6.69;31.77;101056.38;4462303;32;33397;-69
2022/01/25 07:10:58;;;;;;;;;;;;;;;7.14;31.18;101053.72;4469350;32;35421;-67
2022/01/25 07:13:25;;;;;;;;;;;;;;;7.06;31.24;101053.13;4467850;32;34089;-73
2022/01/25 07:15:53;;;;;;;;;;;;;;;7.04;31.30;101040.84;4467979;32;34525;-73
2022/01/25 07:18:20;;;;;;;;;;;;;;;6.42;32.26;101045.84;4466929;32;33238;-71
2022/01/25 07:20:47;;;;;;;;;;;;;;;5.92;33.69;101053.78;4468233;32;32987;-73
2022/01/25 07:23:15;;;;;;;;;;;;;;;6.64;32.25;101053.84;4468176;32;34234;-73
2022/01/25 07:25:42;;;;;;;;;;;;;;;7.09;31.32;101049.47;4467769;32;33914;-72
2022/01/25 07:28:09;;;;;;;;;;;;;;;7.11;31.12;101058.28;4468336;32;33475;-71
2022/01/25 07:30:37;;;;;;;;;;;;;;;6.83;32.06;101054.03;4468270;32;35094;-71
2022/01/25 07:33:20;;;;;;;;;;;;;;;7.36;31.08;101053.72;4468117;32;34438;-71
2022/01/25 07:35:50;;;;;;;;;;;;;;;7.47;30.72;101053.28;4469122;32;33160;-71
2022/01/25 07:38:17;;;;;;;;;;;;;;;7.29;31.47;101054.00;4461480;32;221121;-71
2022/01/25 07:40:48;;;;;;;;;;;;;;;6.92;32.69;101059.00;4468643;32;33961;-71
2022/01/25 07:43:15;;;;;;;;;;;;;;;7.05;32.67;101055.88;4468393;32;34533;-70
2022/01/25 07:45:53;;;;;;;;;;;;;;;6.49;33.64;101062.44;4468039;32;34523;-71
2022/01/25 07:48:24;;;;;;;;;;;;;;;7.51;31.68;101057.53;4468504;32;33619;-71
2022/01/25 07:50:55;;;;;;;;;;;;;;;6.81;32.50;101049.72;4468527;32;32921;-71
2022/01/25 07:53:23;;;;;;;;;;;;;;;7.56;31.58;101052.03;4467869;32;35505;-71
2022/01/25 07:55:50;;;;;;;;;;;;;;;7.58;31.58;101060.84;4465875;32;33363;-71
2022/01/25 07:58:18;;;;;;;;;;;;;;;7.68;31.80;101056.84;4467416;32;34662;-73
2022/01/25 08:00:46;;;;;;;;;;;;;;;7.76;31.66;101060.06;4468598;32;34131;-72
2022/01/25 08:03:16;;;;;;;;;;;;;;;6.93;33.25;101057.22;4465709;32;34532;-72
2022/01/25 08:06:04;;;;;;;;;;;;;;;7.83;31.73;101053.56;4424190;32;34151;-71
2022/01/25 08:08:52;;;;;;;;;;;;;;;8.03;31.46;101051.81;4420961;32;33550;-71
2022/01/25 08:11:40;;;;;;;;;;;;;;;7.69;32.33;101056.78;4430556;32;33034;-71
2022/01/25 08:14:18;;;;;;;;;;;;;;;7.74;32.52;101050.37;4433274;32;34011;-72
2022/01/25 08:16:55;;;;;;;;;;;;;;;7.55;32.72;101050.31;4434088;32;34235;-71
2022/01/25 08:19:26;;;;;;;;;;;;;;;7.84;32.41;101039.28;4422219;32;32206;-70
2022/01/25 08:21:54;;;;;;;;;;;;;;;8.20;31.41;101038.59;4434660;32;34122;-71
2022/01/25 08:24:38;;;;;;;;;;;;;;;7.07;33.32;101033.59;4359167;32;34315;-70
2022/01/25 08:27:24;;;;;;;;;;;;;;;8.01;32.29;101027.00;4358771;32;34338;-71
2022/01/25 08:29:58;;;;;;;;;;;;;;;8.45;31.46;101021.53;4358336;32;33320;-71
2022/01/25 08:32:32;;;;;;;;;;;;;;;8.44;31.34;101025.12;4357374;32;33445;-72
2022/01/25 08:35:14;;;;;;;;;;;;;;;8.55;31.23;101025.50;4303292;33;34379;-72
2022/01/25 08:37:56;;;;;;;;;;;;;;;8.24;32.26;101029.53;4281674;33;33142;-71
2022/01/25 08:40:53;;;;;;;;;;;;;;;8.49;32.32;101025.78;4281520;33;33101;-72
2022/01/25 08:43:34;;;;;;;;;;;;;;;8.81;31.71;101026.97;4310434;33;33974;-72
2022/01/25 08:46:19;;;;;;;;;;;;;;;8.77;32.20;101022.72;4326106;33;33495;-72
2022/01/25 08:48:57;;;;;;;;;;;;;;;8.99;31.78;101010.09;4322172;33;35143;-71
2022/01/25 08:51:29;;;;;;;;;;;;;;;9.04;31.90;101015.19;4326894;33;33678;-71
2022/01/25 08:54:19;;;;;;;;;;;;;;;8.47;33.28;101015.16;4308563;33;34292;-71
2022/01/25 08:57:10;;;;;;;;;;;;;;;8.66;33.13;101023.19;4303862;33;34254;-71
2022/01/25 08:59:54;;;;;;;;;;;;;;;8.88;32.83;101009.72;4309789;33;34482;-71
2022/01/25 09:02:22;;;;;;;;;;;;;;;8.78;33.27;101016.44;4365101;32;31666;-71
2022/01/25 09:04:50;;;;;;;;;;;;;;;8.88;33.28;101015.06;4433337;32;35202;-72
2022/01/25 09:07:17;;;;;;;;;;;;;;;9.04;33.10;101009.84;4463731;32;33859;-71
2022/01/25 09:09:45;;;;;;;;;;;;;;;8.59;34.42;101016.41;4466993;32;34511;-70
2022/01/25 09:12:12;;;;;;;;;;;;;;;8.58;34.73;101022.72;4464447;32;33326;-71
2022/01/25 09:14:39;;;;;;;;;;;;;;;8.75;34.43;101025.44;4464867;32;34119;-72
2022/01/25 09:17:10;;;;;;;;;;;;;;;8.56;34.67;101022.75;4467043;32;33442;-71
2022/01/25 09:19:38;;;;;;;;;;;;;;;9.13;33.99;101020.09;4465742;32;34446;-71
2022/01/25 09:22:06;;;;;;;;;;;;;;;9.01;34.27;101026.87;4465726;32;34666;-71
2022/01/25 09:24:34;;;;;;;;;;;;;;;8.33;35.80;101021.13;4467612;32;33229;-70
2022/01/25 09:27:04;;;;;;;;;;;;;;;8.85;34.89;101024.06;4464095;32;34359;-71
2022/01/25 09:29:32;;;;;;;;;;;;;;;8.75;34.98;101027.25;4465677;32;33766;-71
2022/01/25 09:31:59;;;;;;;;;;;;;;;8.74;35.10;101009.50;4465234;32;33503;-71
2022/01/25 09:34:27;;;;;;;;;;;;;;;8.61;35.58;101015.41;4465485;32;35033;-71
2022/01/25 09:36:54;;;;;;;;;;;;;;;8.01;36.79;101014.53;4466277;32;34223;-72
2022/01/25 09:39:22;;;;;;;;;;;;;;;8.78;35.62;101009.28;4465494;32;35485;-75
2022/01/25 09:41:50;;;;;;;;;;;;;;;8.88;35.35;101006.19;4466868;32;34356;-71
2022/01/25 09:44:18;;;;;;;;;;;;;;;8.54;36.18;101008.66;4465994;32;34685;-66
2022/01/25 09:46:45;;;;;;;;;;;;;;;8.68;35.98;100999.13;4462558;32;35321;-69
2022/01/25 09:49:13;;;;;;;;;;;;;;;8.69;35.70;100993.69;4466834;32;34266;-68
2022/01/25 09:51:41;;;;;;;;;;;;;;;8.43;36.69;100996.72;4465055;32;34609;-70
2022/01/25 09:54:09;;;;;;;;;;;;;;;8.86;35.44;100988.44;4464821;32;32373;-69
2022/01/25 09:56:36;;;;;;;;;;;;;;;8.25;37.34;100998.38;4466771;32;34627;-71
2022/01/25 09:59:03;;;;;;;;;;;;;;;9.05;35.64;100980.41;4464079;32;34527;-70
2022/01/25 10:01:31;;;;;;;;;;;;;;;9.40;35.20;100972.44;4465321;32;33411;-70
2022/01/25 10:04:00;;;;;;;;;;;;;;;8.97;35.63;100968.38;4468851;32;33678;-71
2022/01/25 10:06:30;;;;;;;;;;;;;;;9.61;34.78;100978.50;4465277;32;32710;-69
2022/01/25 10:08:57;;;;;;;;;;;;;;;9.78;34.66;100973.16;4466699;32;36537;-71
2022/01/25 10:11:25;;;;;;;;;;;;;;;9.17;36.27;100967.38;4467031;32;32159;-72
2022/01/25 10:13:56;;;;;;;;;;;;;;;9.72;35.16;100961.91;4466308;32;33941;-67
2022/01/25 10:16:33;;;;;;;;;;;;;;;10.27;34.03;100959.00;4466471;32;33966;-70
2022/01/25 10:19:05;;;;;;;;;;;;;;;10.26;33.87;100960.81;4465243;32;35112;-71
2022/01/25 10:21:34;;;;;;;;;;;;;;;10.46;33.56;100956.19;4465872;32;32014;-71
2022/01/25 10:24:03;;;;;;;;;;;;;;;9.84;34.82;100958.59;4466234;32;34126;-71
2022/01/25 10:26:49;;;;;;;;;;;;;;;9.88;34.62;100949.47;4463677;32;34313;-70
2022/01/25 10:29:30;;;;;;;;;;;;;;;9.71;34.87;100941.47;4461204;32;33223;-70
2022/01/25 10:32:06;;;;;;;;;;;;;;;9.75;35.23;100945.72;4466000;32;33283;-69
2022/01/25 10:34:35;;;;;;;;;;;;;;;9.40;36.15;100947.53;4460171;32;32844;-71
2022/01/25 10:37:06;;;;;;;;;;;;;;;9.92;34.90;100936.78;4465318;32;35697;-70
2022/01/25 10:39:36;;;;;;;;;;;;;;;10.03;34.73;100929.94;4465644;32;34507;-71
2022/01/25 10:42:06;;;;;;;;;;;;;;;9.95;35.27;100926.81;4465126;32;34322;-70
2022/01/25 10:44:47;;;;;;;;;;;;;;;9.23;36.42;100922.53;4463663;32;33210;-69
2022/01/25 10:47:15;;;;;;;;;;;;;;;9.99;35.40;100935.53;4465261;32;36052;-71
2022/01/25 10:49:43;;;;;;;;;;;;;;;10.19;35.22;100940.66;4465702;32;34142;-71
2022/01/25 10:52:11;;;;;;;;;;;;;;;10.41;34.48;100926.16;4465490;32;33443;-71
2022/01/25 10:54:39;;;;;;;;;;;;;;;9.79;35.80;100931.22;4466435;32;34617;-72
2022/01/25 10:57:16;;;;;;;;;;;;;;;9.96;35.45;100927.69;4465576;32;33834;-72
2022/01/25 10:59:43;;;;;;;;;;;;;;;9.99;35.92;100917.69;4465969;32;35881;-70
2022/01/25 11:02:11;;;;;;;;;;;;;;;9.92;35.57;100921.63;4461386;32;33330;-71
2022/01/25 11:04:39;;;;;;;;;;;;;;;10.07;35.63;100919.06;4466031;32;32500;-71
2022/01/25 11:07:08;;;;;;;;;;;;;;;9.38;36.47;100917.34;4466352;32;35452;-72
2022/01/25 11:09:40;;;;;;;;;;;;;;;10.13;35.32;100916.06;4468023;32;35457;-71
2022/01/25 11:12:10;;;;;;;;;;;;;;;10.14;35.52;100915.97;4466631;32;33822;-70
2022/01/25 11:14:50;;;;;;;;;;;;;;;10.03;35.51;100908.53;4466294;32;34870;-70
2022/01/25 11:17:18;;;;;;;;;;;;;;;10.41;34.52;100908.28;4466342;32;35261;-70
2022/01/25 11:19:46;;;;;;;;;;;;;;;9.94;35.64;100908.16;4466723;32;34351;-70
2022/01/25 11:22:19;;;;;;;;;;;;;;;9.82;35.78;100903.47;4465636;32;33311;-72
2022/01/25 11:25:00;;;;;;;;;;;;;;;9.73;36.04;100910.19;4463097;32;35640;-70
2022/01/25 11:27:29;;;;;;;;;;;;;;;9.42;36.81;100909.09;4458820;32;34254;-71
2022/01/25 11:29:58;;;;;;;;;;;;;;;9.48;36.67;100903.44;4462358;32;34163;-72
2022/01/25 11:32:28;;;;;;;;;;;;;;;9.35;37.13;100894.31;4463628;32;33252;-72
2022/01/25 11:34:55;;;;;;;;;;;;;;;9.60;37.20;100890.34;4464087;32;33960;-70
2022/01/25 11:37:43;;;;;;;;;;;;;;;9.61;37.57;100890.28;4465838;32;34623;-71
2022/01/25 11:40:20;;;;;;;;;;;;;;;9.36;37.74;100896.03;4465994;32;35364;-71
2022/01/25 11:42:48;;;;;;;;;;;;;;;10.23;35.78;100883.34;4465155;32;33857;-70
2022/01/25 11:45:18;;;;;;;;;;;;;;;10.85;34.94;100882.59;4465174;32;35107;-69
2022/01/25 11:47:47;;;;;;;;;;;;;;;11.13;34.37;100884.53;4464813;32;33956;-69
2022/01/25 11:50:15;;;;;;;;;;;;;;;11.10;34.38;100887.41;4465717;32;33157;-70
2022/01/25 11:52:47;;;;;;;;;;;;;;;11.42;33.77;100880.97;4467869;32;33834;-72
2022/01/25 11:55:17;;;;;;;;;;;;;;;11.72;33.48;100884.56;4468424;32;33946;-68
2022/01/25 11:57:49;;;;;;;;;;;;;;;11.92;33.32;100891.44;4468623;32;33650;-70
2022/01/25 12:00:16;;;;;;;;;;;;;;;11.87;33.18;100889.88;4468040;32;34221;-71
2022/01/25 12:02:45;;;;;;;;;;;;;;;12.11;32.39;100892.00;4465824;32;34084;-73
2022/01/25 12:05:14;;;;;;;;;;;;;;;12.49;31.71;100869.91;4468088;32;34329;-71
2022/01/25 12:08:03;;;;;;;;;;;;;;;12.45;31.67;100863.00;4464284;32;34453;-70
2022/01/25 12:10:31;;;;;;;;;;;;;;;12.22;32.13;100862.66;4468411;32;35398;-73
2022/01/25 12:13:08;;;;;;;;;;;;;;;12.69;31.55;100857.87;4468241;32;33654;-71
2022/01/25 12:15:36;;;;;;;;;;;;;;;12.83;30.86;100860.47;4462194;32;33979;-73
2022/01/25 12:18:03;;;;;;;;;;;;;;;12.63;31.77;100853.75;4467050;32;34215;-71
2022/01/25 12:20:31;;;;;;;;;;;;;;;12.57;31.58;100856.84;4468033;32;34069;-70
2022/01/25 12:23:16;;;;;;;;;;;;;;;12.23;32.17;100856.34;4464221;32;33257;-69
2022/01/25 12:25:54;;;;;;;;;;;;;;;12.67;31.56;100849.03;4465640;32;34407;-70
2022/01/25 12:28:45;;;;;;;;;;;;;;;12.31;32.82;100845.09;4467556;32;34099;-70
2022/01/25 12:31:16;;;;;;;;;;;;;;;12.65;31.99;100840.19;4468635;32;33460;-70
2022/01/25 12:33:46;;;;;;;;;;;;;;;12.72;31.47;100836.16;4456000;32;32665;-71
2022/01/25 12:36:13;;;;;;;;;;;;;;;12.40;32.11;100833.78;4458253;32;33125;-75
2022/01/25 12:38:43;;;;;;;;;;;;;;;12.42;31.91;100831.84;4462374;32;33426;-72
2022/01/25 12:41:12;;;;;;;;;;;;;;;12.38;32.11;100816.87;4461062;32;33432;-72
2022/01/25 12:44:05;;;;;;;;;;;;;;;11.80;33.78;100820.59;4465510;32;33708;-72
2022/01/25 12:46:35;;;;;;;;;;;;;;;11.99;33.08;100820.31;4459374;32;34347;-72
2022/01/25 12:49:11;;;;;;;;;;;;;;;12.43;32.83;100822.84;4466388;32;35149;-73
2022/01/25 12:51:41;;;;;;;;;;;;;;;12.41;32.60;100827.44;4463339;32;35405;-71
2022/01/25 12:54:10;;;;;;;;;;;;;;;12.40;32.59;100827.56;4465125;32;34804;-71
2022/01/25 12:56:48;;;;;;;;;;;;;;;11.72;33.47;100820.19;4462579;32;33879;-72
2022/01/25 12:59:18;;;;;;;;;;;;;;;12.14;33.04;100821.19;4466038;32;34456;-71
2022/01/25 13:01:46;;;;;;;;;;;;;;;11.72;33.53;100812.16;4464134;32;33486;-71
2022/01/25 13:04:13;;;;;;;;;;;;;;;12.66;32.00;100807.03;4465031;32;33286;-71
2022/01/25 13:06:43;;;;;;;;;;;;;;;12.83;31.62;100804.06;4461526;32;33204;-72
2022/01/25 13:09:16;;;;;;;;;;;;;;;12.65;32.22;100799.91;4466504;32;32959;-71
2022/01/25 13:17:06;;;;;;;;;;;;;;;12.73;32.01;100789.53;4465724;32;34293;-72
2022/01/25 13:19:43;;;;;;;;;;;;;;;13.12;31.10;100788.63;4465285;32;33002;-71
2022/01/25 13:22:40;;;;;;;;;;;;;;;13.12;31.20;100785.09;4463156;32;35330;-74
2022/01/25 13:25:31;;;;;;;;;;;;;;;13.03;31.58;100781.19;4463138;32;33309;-73
2022/01/25 13:28:02;;;;;;;;;;;;;;;13.14;31.33;100788.56;4459249;32;34419;-71
2022/01/25 13:30:45;;;;;;;;;;;;;;;12.75;32.21;100779.56;4461729;32;36088;-73
2022/01/25 13:33:17;;;;;;;;;;;;;;;12.50;32.52;100777.66;4463657;32;35355;-69
2022/01/25 13:35:52;;;;;;;;;;;;;;;12.48;32.74;100776.88;4458026;32;33683;-69
2022/01/25 13:38:21;;;;;;;;;;;;;;;12.49;32.96;100770.56;4457773;31;32239;-69
2022/01/25 13:41:18;;;;;;;;;;;;;;;12.51;32.58;100763.25;4462082;32;32892;-69
2022/01/25 13:46:36;;;;;;;;;;;;;;;12.51;32.65;100761.41;4457398;32;33317;-74
2022/01/25 13:49:09;;;;;;;;;;;;;;;12.30;33.18;100755.66;4459352;32;33517;-74
2022/01/25 13:51:47;;;;;;;;;;;;;;;11.59;34.67;100758.47;4464128;32;33403;-71
2022/01/25 13:54:20;;;;;;;;;;;;;;;12.44;33.15;100752.06;4461741;32;34051;-72
2022/01/25 13:56:48;;;;;;;;;;;;;;;12.41;33.29;100752.25;4461746;32;33138;-71
2022/01/25 13:59:15;;;;;;;;;;;;;;;12.81;32.80;100750.44;4461484;32;35498;-73
2022/01/25 14:01:43;;;;;;;;;;;;;;;12.33;33.54;100754.59;4463852;31;33841;-73
2022/01/25 14:04:26;;;;;;;;;;;;;;;12.74;32.67;100742.88;4453015;32;34549;-71
2022/01/25 14:06:55;;;;;;;;;;;;;;;12.62;32.65;100733.84;4458171;32;33411;-71
2022/01/25 14:09:35;;;;;;;;;;;;;;;12.35;33.49;100742.78;4454695;32;32956;-71
2022/01/25 14:23:17;;;;;;;;;;;;;;;12.03;34.67;100728.78;4454264;32;34417;-72
2022/01/25 14:25:42;;;;;;;;;;;;;;;12.25;34.39;100735.44;4462915;31;34232;-73
2022/01/25 14:28:12;;;;;;;;;;;;;;;12.09;34.47;100736.44;4457483;32;34695;-70
2022/01/25 14:30:40;;;;;;;;;;;;;;;12.48;34.05;100741.97;4455854;32;35257;-69
2022/01/25 14:33:14;;;;;;;;;;;;;;;12.39;33.85;100737.22;4464747;32;34409;-71
2022/01/25 14:35:47;;;;;;;;;;;;;;;12.41;33.85;100727.25;4460058;32;34487;-70
2022/01/25 14:38:18;;;;;;;;;;;;;;;12.37;34.03;100728.41;4459080;32;34674;-70
2022/01/25 14:41:04;;;;;;;;;;;;;;;12.06;34.66;100733.97;4457912;32;34313;-71
2022/01/25 14:43:45;;;;;;;;;;;;;;;11.96;35.15;100732.84;4455980;32;34160;-70
2022/01/25 14:46:14;;;;;;;;;;;;;;;11.82;35.39;100744.44;4455192;32;35138;-72
2022/01/25 14:48:54;;;;;;;;;;;;;;;12.00;35.08;100730.81;4454294;32;33023;-73
2022/01/25 14:51:21;;;;;;;;;;;;;;;12.30;34.61;100727.97;4456925;32;33931;-73
2022/01/25 14:53:52;;;;;;;;;;;;;;;12.33;34.82;100735.81;4457177;32;34300;-73
2022/01/25 14:56:19;;;;;;;;;;;;;;;11.80;35.71;100735.63;4459553;32;35391;-73
2022/01/25 15:01:24;;;;;;;;;;;;;;;11.99;35.67;100750.56;4456451;32;34900;-74
2022/01/25 15:03:51;;;;;;;;;;;;;;;11.78;36.08;100750.06;4457637;32;34174;-74
2022/01/25 15:06:19;;;;;;;;;;;;;;;12.16;35.29;100750.31;4459545;32;35610;-71